Time;durP1;ratioP1;P1;durP2;ratioP2;P2;SDS_P1;SDS_P2;PMS_P1;PMS_P2;Temp;Humidity;BMP_temperature;BMP_pressure;BME280_temperature;BME280_humidity;BME280_pressure;Samples;Min_cycle;Max_cycle;Signal;HPM_P1;HPM_P2
2023/12/20 00:00:25;;;;;;;;;;;7.10;99.90;;;;;;4998125;28;19951;-66
2023/12/20 00:02:50;;;;;;;;;;;7.10;99.90;;;;;;4998903;28;19921;-66
2023/12/20 00:05:16;;;;;;;;;;;7.10;99.90;;;;;;5003253;28;19913;-66
2023/12/20 00:07:41;;;;;;;;;;;7.00;99.90;;;;;;4998897;28;20009;-66
2023/12/20 00:10:07;;;;;;;;;;;7.10;99.90;;;;;;5001436;28;19906;-66
2023/12/20 00:12:32;;;;;;;;;;;7.00;99.90;;;;;;5000800;28;19906;-66
2023/12/20 00:14:58;;;;;;;;;;;7.10;99.90;;;;;;4999601;28;19906;-66
2023/12/20 00:17:23;;;;;;;;;;;7.10;99.90;;;;;;5001941;28;19914;-66
2023/12/20 00:19:49;;;;;;;;;;;7.10;99.90;;;;;;4999171;28;19948;-66
2023/12/20 00:22:14;;;;;;;;;;;7.00;99.90;;;;;;5002346;28;19905;-66
2023/12/20 00:24:40;;;;;;;;;;;7.00;99.90;;;;;;4999962;28;19909;-66
2023/12/20 00:27:07;;;;;;;46.63;17.00;;;7.00;99.90;;;;;;4991435;28;19913;-66
2023/12/20 00:29:33;;;;;;;47.40;16.25;;;7.00;99.90;;;;;;4999782;28;20401;-66
2023/12/20 00:31:59;;;;;;;47.30;16.42;;;7.00;99.90;;;;;;4999726;28;20022;-66
2023/12/20 00:34:24;;;;;;;49.45;17.65;;;7.00;99.90;;;;;;4998798;28;20470;-66
2023/12/20 00:36:50;;;;;;;45.40;16.00;;;7.00;99.90;;;;;;5008065;28;20061;-66
2023/12/20 00:39:15;;;;;;;41.70;16.33;;;7.00;99.90;;;;;;4997974;28;20037;-66
2023/12/20 00:41:41;;;;;;;41.55;16.08;;;7.00;99.90;;;;;;4998417;28;20023;-66
2023/12/20 00:44:07;;;;;;;42.88;15.48;;;6.90;99.90;;;;;;5000672;28;20035;-66
2023/12/20 00:46:32;;;;;;;35.92;13.90;;;7.00;99.90;;;;;;4999582;28;20018;-66
2023/12/20 00:48:58;;;;;;;47.13;16.08;;;6.90;99.90;;;;;;4981962;28;20586;-66
2023/12/20 00:51:24;;;;;;;39.22;14.60;;;6.90;99.90;;;;;;4983784;28;20022;-66
2023/12/20 00:53:50;;;;;;;26.85;11.25;;;6.80;99.90;;;;;;4998344;28;20034;-66
2023/12/20 00:56:18;;;;;;;28.63;10.27;;;6.80;99.90;;;;;;4980985;28;20034;-66
2023/12/20 00:58:43;;;;;;;29.17;11.63;;;6.80;99.90;;;;;;4998876;28;20778;-66
2023/12/20 01:01:09;;;;;;;27.92;12.73;;;6.70;99.90;;;;;;4981332;28;20027;-66
2023/12/20 01:03:34;;;;;;;21.90;8.43;;;6.70;99.90;;;;;;4999906;28;20077;-66
2023/12/20 01:06:00;;;;;;;21.38;9.05;;;6.70;99.90;;;;;;4999973;28;20470;-68
2023/12/20 01:08:28;;;;;;;17.60;7.13;;;6.60;99.90;;;;;;4997545;28;20030;-68
2023/12/20 01:10:53;;;;;;;18.48;6.32;;;6.60;99.90;;;;;;4998789;28;20031;-68
2023/12/20 01:13:19;;;;;;;17.65;6.00;;;6.50;99.90;;;;;;5001040;28;20777;-68
2023/12/20 01:15:45;;;;;;;16.85;5.63;;;6.40;99.90;;;;;;4997375;28;20034;-68
2023/12/20 01:18:10;;;;;;;19.00;7.15;;;6.40;99.90;;;;;;5000740;28;20148;-68
2023/12/20 01:20:36;;;;;;;22.23;6.57;;;6.40;99.90;;;;;;4998235;28;20033;-68
2023/12/20 01:23:01;;;;;;;11.50;4.20;;;6.40;99.90;;;;;;5001717;28;20104;-68
2023/12/20 01:25:27;;;;;;;14.20;5.40;;;6.40;99.90;;;;;;4999440;28;20060;-66
2023/12/20 01:27:52;;;;;;;22.40;5.30;;;6.40;99.90;;;;;;5004871;28;20558;-65
2023/12/20 01:30:20;;;;;;;18.48;4.80;;;6.40;99.90;;;;;;4978672;28;20649;-65
2023/12/20 01:32:46;;;;;;;13.45;5.25;;;6.30;99.90;;;;;;5000831;28;20505;-65
2023/12/20 01:35:12;;;;;;;16.05;5.63;;;6.30;99.90;;;;;;4998062;28;20109;-66
2023/12/20 01:37:38;;;;;;;14.00;4.32;;;6.30;99.90;;;;;;4996873;28;20406;-65
2023/12/20 01:40:04;;;;;;;19.92;6.53;;;6.30;99.90;;;;;;5000284;28;20022;-67
2023/12/20 01:42:32;;;;;;;15.63;4.00;;;6.30;99.90;;;;;;4998586;28;20501;-68
2023/12/20 01:44:57;;;;;;;12.98;4.97;;;6.50;99.90;;;;;;4981667;28;20030;-65
2023/12/20 01:47:23;;;;;;;13.60;4.10;;;6.30;99.90;;;;;;4982593;28;20118;-67
2023/12/20 01:49:49;;;;;;;15.70;4.40;;;6.30;99.90;;;;;;4997560;28;20093;-67
2023/12/20 01:52:16;;;;;;;16.02;5.72;;;6.40;99.90;;;;;;5001066;28;20026;-65
2023/12/20 01:54:42;;;;;;;25.20;6.45;;;6.30;99.90;;;;;;4996930;28;20038;-65
2023/12/20 01:57:09;;;;;;;11.88;4.82;;;6.30;99.90;;;;;;4997676;28;20027;-65
2023/12/20 01:59:35;;;;;;;12.85;5.15;;;6.30;99.90;;;;;;4997693;28;20334;-67
2023/12/20 02:02:03;;;;;;;13.13;5.15;;;6.30;99.90;;;;;;4998628;28;20077;-67
2023/12/20 02:04:29;;;;;;;13.60;4.00;;;6.30;99.90;;;;;;4997441;28;20358;-65
2023/12/20 02:06:56;;;;;;;14.20;5.68;;;6.30;99.90;;;;;;4999693;28;20026;-65
2023/12/20 02:09:24;;;;;;;21.00;6.00;;;6.30;99.90;;;;;;4997272;28;20026;-65
2023/12/20 02:11:50;;;;;;;19.30;6.30;;;6.30;99.90;;;;;;4997909;28;20105;-67
2023/12/20 02:14:16;;;;;;;17.88;5.68;;;6.30;99.90;;;;;;5000323;28;20113;-67
2023/12/20 02:16:41;;;;;;;22.23;6.03;;;6.20;99.90;;;;;;4996645;28;20096;-65
2023/12/20 02:19:14;;;;;;;14.45;5.97;;;6.20;99.90;;;;;;5000527;28;20054;-64
2023/12/20 02:21:39;;;;;;;20.45;7.28;;;6.20;99.90;;;;;;4996962;28;20330;-64
2023/12/20 02:24:05;;;;;;;19.38;4.90;;;6.20;99.90;;;;;;4982662;28;20053;-64
2023/12/20 02:26:33;;;;;;;18.52;5.65;;;6.10;99.90;;;;;;4999834;28;20521;-64
2023/12/20 02:28:59;;;;;;;14.18;5.65;;;6.10;99.90;;;;;;4998069;28;20481;-64
2023/12/20 02:31:24;;;;;;;22.42;5.57;;;6.10;99.90;;;;;;4998970;28;20056;-64
2023/12/20 02:33:50;;;;;;;15.00;5.13;;;6.10;99.90;;;;;;4989553;28;20053;-64
2023/12/20 02:36:16;;;;;;;15.07;5.53;;;5.90;99.90;;;;;;4998076;28;20351;-64
2023/12/20 02:38:41;;;;;;;18.60;5.65;;;5.90;99.90;;;;;;4985889;28;20505;-66
2023/12/20 02:41:07;;;;;;;15.00;5.47;;;5.90;99.90;;;;;;5004353;28;20026;-64
2023/12/20 02:43:32;;;;;;;19.33;5.38;;;5.80;99.90;;;;;;5000440;28;20033;-64
2023/12/20 02:45:58;;;;;;;15.63;5.15;;;5.80;99.90;;;;;;4985344;28;20054;-64
2023/12/20 02:48:24;;;;;;;19.73;5.43;;;5.70;99.90;;;;;;4984604;28;20523;-64
2023/12/20 02:50:49;;;;;;;13.38;3.85;;;5.70;99.90;;;;;;5004124;28;20096;-64
2023/12/20 02:53:15;;;;;;;16.05;4.80;;;5.70;99.90;;;;;;5001234;28;20113;-66
2023/12/20 02:55:40;;;;;;;15.05;4.57;;;5.70;99.90;;;;;;4985546;28;20034;-64
2023/12/20 02:58:06;;;;;;;17.58;4.75;;;5.70;99.90;;;;;;5003817;28;20033;-66
2023/12/20 03:00:32;;;;;;;10.50;3.75;;;5.80;99.90;;;;;;4988722;28;20077;-66
2023/12/20 03:02:59;;;;;;;15.27;3.70;;;5.80;99.90;;;;;;5001407;28;20042;-66
2023/12/20 03:05:25;;;;;;;16.80;5.45;;;5.80;99.90;;;;;;4985240;28;20057;-66
2023/12/20 03:07:50;;;;;;;15.30;5.20;;;5.80;99.90;;;;;;4983802;28;20096;-64
2023/12/20 03:10:16;;;;;;;25.02;7.22;;;5.80;99.90;;;;;;5002837;28;20029;-64
2023/12/20 03:12:41;;;;;;;12.27;5.07;;;5.80;99.90;;;;;;4983914;28;20089;-64
2023/12/20 03:15:07;;;;;;;14.35;5.32;;;5.80;99.90;;;;;;5004798;28;20026;-66
2023/12/20 03:17:33;;;;;;;23.48;7.03;;;5.80;99.90;;;;;;4999518;28;20038;-66
2023/12/20 03:19:58;;;;;;;14.68;6.15;;;5.90;99.90;;;;;;4985196;28;20146;-64
2023/12/20 03:22:24;;;;;;;17.40;5.88;;;5.90;99.90;;;;;;5000990;28;20032;-66
2023/12/20 03:24:50;;;;;;;15.48;6.07;;;5.90;99.90;;;;;;5001142;28;20027;-66
2023/12/20 03:27:15;;;;;;;28.48;8.93;;;5.80;99.90;;;;;;5005083;28;20384;-64
2023/12/20 03:29:41;;;;;;;18.83;7.20;;;5.80;99.90;;;;;;5000670;28;20037;-67
2023/12/20 03:32:08;;;;;;;22.60;6.28;;;5.80;99.90;;;;;;4999938;28;20105;-67
2023/12/20 03:34:34;;;;;;;18.95;6.57;;;5.80;99.90;;;;;;4999568;28;20359;-67
2023/12/20 03:36:59;;;;;;;22.25;7.72;;;5.90;99.90;;;;;;4983100;28;20117;-67
2023/12/20 03:39:25;;;;;;;15.05;5.68;;;5.90;99.90;;;;;;4999565;28;20014;-67
2023/12/20 03:41:50;;;;;;;18.85;6.10;;;5.90;99.90;;;;;;5001257;28;20030;-67
2023/12/20 03:44:16;;;;;;;21.90;6.28;;;5.90;99.90;;;;;;5001816;28;20421;-67
2023/12/20 03:46:41;;;;;;;22.92;7.90;;;5.90;99.90;;;;;;4982138;28;20057;-67
2023/12/20 03:49:07;;;;;;;19.73;5.72;;;5.80;99.90;;;;;;5001889;28;20112;-67
2023/12/20 03:51:32;;;;;;;27.85;8.23;;;5.90;99.90;;;;;;4999821;28;20462;-67
2023/12/20 03:53:58;;;;;;;23.42;6.65;;;5.80;99.90;;;;;;4995841;28;20096;-67
2023/12/20 03:56:24;;;;;;;19.15;6.47;;;5.80;99.90;;;;;;5018203;28;20032;-66
2023/12/20 03:58:49;;;;;;;15.55;5.57;;;5.80;99.90;;;;;;4998168;28;20037;-68
2023/12/20 04:01:15;;;;;;;17.15;6.57;;;5.80;99.90;;;;;;4995423;28;20382;-67
2023/12/20 04:03:42;;;;;;;18.27;8.30;;;5.80;99.90;;;;;;4998711;28;20034;-68
2023/12/20 04:06:10;;;;;;;22.52;7.97;;;5.80;99.90;;;;;;4999805;28;20045;-67
2023/12/20 04:08:36;;;;;;;21.70;9.55;;;5.70;99.90;;;;;;4984242;28;20030;-67
2023/12/20 04:11:02;;;;;;;14.80;5.90;;;5.70;99.90;;;;;;5002565;28;20370;-68
2023/12/20 04:13:27;;;;;;;27.98;7.57;;;5.60;99.90;;;;;;4999489;28;20046;-66
2023/12/20 04:15:53;;;;;;;22.08;7.40;;;5.50;99.90;;;;;;5001168;28;20025;-65
2023/12/20 04:18:21;;;;;;;23.20;7.55;;;5.50;99.90;;;;;;5000006;28;20089;-65
2023/12/20 04:20:46;;;;;;;20.50;7.18;;;5.40;99.90;;;;;;5000371;28;20022;-65
2023/12/20 04:23:17;;;;;;;25.80;7.07;;;5.40;99.90;;;;;;5001075;28;20029;-68
2023/12/20 04:25:42;;;;;;;;;;;5.40;99.90;;;;;;5000168;28;20054;-65
2023/12/20 04:28:08;;;;;;;13.35;4.82;;;5.50;99.90;;;;;;5003725;28;19949;-65
2023/12/20 04:30:33;;;;;;;18.52;5.78;;;5.40;99.90;;;;;;5000059;28;20496;-65
2023/12/20 04:32:59;;;;;;;17.30;5.05;;;5.40;99.90;;;;;;4998147;28;20030;-65
2023/12/20 04:35:24;;;;;;;19.30;6.03;;;5.40;99.90;;;;;;5001785;28;20401;-67
2023/12/20 04:37:50;;;;;;;20.27;6.35;;;5.40;99.90;;;;;;4997167;28;20026;-67
2023/12/20 04:40:16;;;;;;;10.55;4.47;;;5.40;99.90;;;;;;4998159;28;20037;-67
2023/12/20 04:42:41;;;;;;;22.38;7.28;;;5.40;99.90;;;;;;4982517;28;20061;-67
2023/12/20 04:45:07;;;;;;;21.63;7.28;;;5.40;99.90;;;;;;4999492;28;20024;-67
2023/12/20 04:47:33;;;;;;;28.42;8.85;;;5.30;99.90;;;;;;4983763;28;20124;-67
2023/12/20 04:49:58;;;;;;;21.92;7.97;;;5.40;99.90;;;;;;4997933;28;20026;-67
2023/12/20 04:52:25;;;;;;;19.55;5.65;;;5.40;99.90;;;;;;5001563;28;20034;-67
2023/12/20 04:54:51;;;;;;;25.27;8.75;;;5.50;99.90;;;;;;4998261;28;20105;-67
2023/12/20 04:57:17;;;;;;;27.55;7.75;;;5.50;99.90;;;;;;5001976;28;20110;-67
2023/12/20 04:59:42;;;;;;;22.90;8.10;;;5.50;99.90;;;;;;4997217;28;20057;-67
2023/12/20 05:02:10;;;;;;;22.65;7.22;;;5.50;99.90;;;;;;5000173;28;20060;-67
2023/12/20 05:04:35;;;;;;;18.50;6.30;;;5.50;99.90;;;;;;4998915;28;20058;-67
2023/12/20 05:07:01;;;;;;;24.75;9.82;;;5.50;99.90;;;;;;5000280;28;20057;-67
2023/12/20 05:09:26;;;;;;;18.33;6.85;;;5.50;99.90;;;;;;4997364;28;20041;-67
2023/12/20 05:11:52;;;;;;;24.63;8.65;;;5.40;99.90;;;;;;4997169;28;20524;-67
2023/12/20 05:14:18;;;;;;;22.95;9.15;;;5.50;99.90;;;;;;5000412;28;20022;-67
2023/12/20 05:16:43;;;;;;;30.80;9.50;;;5.50;99.90;;;;;;4998164;28;20030;-67
2023/12/20 05:19:09;;;;;;;24.65;7.28;;;5.50;99.90;;;;;;4998674;28;20050;-67
2023/12/20 05:21:35;;;;;;;21.42;7.20;;;5.50;99.90;;;;;;4999866;28;20448;-67
2023/12/20 05:24:04;;;;;;;16.08;6.75;;;5.50;99.90;;;;;;4997392;28;20367;-67
2023/12/20 05:26:30;;;;;;;24.95;7.85;;;5.50;99.90;;;;;;5001360;28;20113;-67
2023/12/20 05:28:55;;;;;;;23.55;7.60;;;5.50;99.90;;;;;;4977374;28;20480;-67
2023/12/20 05:31:23;;;;;;;18.40;7.35;;;5.50;99.90;;;;;;4997286;28;20058;-67
2023/12/20 05:33:49;;;;;;;41.60;6.03;;;5.50;99.90;;;;;;4997573;28;20468;-67
2023/12/20 05:36:15;;;;;;;24.13;8.73;;;5.50;99.90;;;;;;4982357;28;20034;-67
2023/12/20 05:38:41;;;;;;;19.73;6.47;;;5.50;99.90;;;;;;4997518;28;20117;-67
2023/12/20 05:41:06;;;;;;;26.65;8.88;;;5.50;99.90;;;;;;4998738;28;20022;-67
2023/12/20 05:43:34;;;;;;;20.88;8.20;;;5.40;99.90;;;;;;4999706;28;20022;-67
2023/12/20 05:46:03;;;;;;;25.52;7.07;;;5.40;99.90;;;;;;4997420;28;20023;-67
2023/12/20 05:48:31;;;;;;;18.55;6.07;;;5.50;99.90;;;;;;4999968;28;20080;-67
2023/12/20 05:50:57;;;;;;;25.75;8.40;;;5.50;99.90;;;;;;4996914;28;20026;-67
2023/12/20 05:53:23;;;;;;;29.95;8.00;;;5.40;99.90;;;;;;5000343;28;20061;-67
2023/12/20 05:55:48;;;;;;;22.95;8.40;;;5.40;99.90;;;;;;4979166;28;20478;-65
2023/12/20 05:58:14;;;;;;;19.15;6.00;;;5.50;99.90;;;;;;4982920;28;20030;-64
2023/12/20 06:00:39;;;;;;;25.17;8.40;;;5.40;99.90;;;;;;4997307;28;20026;-64
2023/12/20 06:03:05;;;;;;;26.75;6.85;;;5.40;99.90;;;;;;4998760;28;20057;-66
2023/12/20 06:05:31;;;;;;;24.83;9.05;;;5.30;99.90;;;;;;4997970;28;20038;-66
2023/12/20 06:08:02;;;;;;;21.85;6.80;;;5.20;99.90;;;;;;4995602;28;20038;-66
2023/12/20 06:10:34;;;;;;;21.58;7.32;;;5.20;99.90;;;;;;4999726;28;20037;-66
2023/12/20 06:13:00;;;;;;;21.45;6.85;;;5.20;99.90;;;;;;4999458;28;20054;-66
2023/12/20 06:15:26;;;;;;;31.77;9.95;;;5.20;99.90;;;;;;5000797;28;20030;-66
2023/12/20 06:17:52;;;;;;;21.58;7.38;;;5.30;99.90;;;;;;4984220;28;20022;-67
2023/12/20 06:20:17;;;;;;;23.08;8.75;;;5.30;99.90;;;;;;4999985;28;20037;-67
2023/12/20 06:22:43;;;;;;;25.40;7.53;;;5.30;99.90;;;;;;4982038;28;20027;-67
2023/12/20 06:25:11;;;;;;;29.25;9.80;;;5.30;99.90;;;;;;4998498;28;20518;-67
2023/12/20 06:27:36;;;;;;;27.17;7.90;;;5.30;99.90;;;;;;5005766;28;20030;-67
2023/12/20 06:30:02;;;;;;;21.08;7.47;;;5.40;99.90;;;;;;4979402;28;20106;-67
2023/12/20 06:32:29;;;;;;;32.58;10.43;;;5.40;99.90;;;;;;5002583;28;20042;-67
2023/12/20 06:34:54;;;;;;;24.73;8.77;;;5.40;99.90;;;;;;5004119;28;20456;-67
2023/12/20 06:37:20;;;;;;;33.38;8.57;;;5.40;99.90;;;;;;4997427;28;20033;-67
2023/12/20 06:39:46;;;;;;;30.98;9.93;;;5.40;99.90;;;;;;4988081;28;20096;-67
2023/12/20 06:42:12;;;;;;;23.92;7.18;;;5.40;99.90;;;;;;5000920;28;20027;-67
2023/12/20 06:44:38;;;;;;;34.30;9.00;;;5.40;99.90;;;;;;5003651;28;20014;-67
2023/12/20 06:47:04;;;;;;;22.17;8.43;;;5.50;99.90;;;;;;5002947;28;20112;-67
2023/12/20 06:49:30;;;;;;;26.58;9.90;;;5.50;99.90;;;;;;4998502;28;20619;-67
2023/12/20 06:51:55;;;;;;;24.10;9.18;;;5.50;99.90;;;;;;5000092;28;20112;-67
2023/12/20 06:54:21;;;;;;;37.13;10.52;;;5.50;99.90;;;;;;5006795;28;20018;-67
2023/12/20 06:56:47;;;;;;;24.90;8.40;;;5.50;99.90;;;;;;5001844;28;20032;-67
2023/12/20 06:59:12;;;;;;;25.63;9.95;;;5.50;99.90;;;;;;4999055;28;20097;-67
2023/12/20 07:01:38;;;;;;;21.73;9.75;;;5.50;99.90;;;;;;4999299;28;20091;-67
2023/12/20 07:04:03;;;;;;;20.85;7.28;;;5.50;99.90;;;;;;5000724;28;20095;-67
2023/12/20 07:06:29;;;;;;;27.15;6.60;;;5.50;99.90;;;;;;5004237;28;20385;-67
2023/12/20 07:08:57;;;;;;;25.90;9.55;;;5.50;99.90;;;;;;5001205;28;20065;-67
2023/12/20 07:11:23;;;;;;;27.58;9.18;;;5.50;99.90;;;;;;5000664;28;20033;-64
2023/12/20 07:13:49;;;;;;;28.33;9.40;;;5.50;99.90;;;;;;5002519;28;20381;-65
2023/12/20 07:16:15;;;;;;;31.75;9.32;;;5.50;99.90;;;;;;5000477;28;20038;-64
2023/12/20 07:18:40;;;;;;;21.27;7.53;;;5.50;99.90;;;;;;4986034;28;20042;-66
2023/12/20 07:21:07;;;;;;;23.02;7.45;;;5.60;99.90;;;;;;4999909;28;20025;-66
2023/12/20 07:23:33;;;;;;;30.00;9.43;;;5.60;99.90;;;;;;5002055;28;20030;-66
2023/12/20 07:25:59;;;;;;;23.10;8.70;;;5.60;99.90;;;;;;4997431;28;20017;-65
2023/12/20 07:28:27;;;;;;;29.65;7.97;;;5.50;99.90;;;;;;5001377;28;20069;-65
2023/12/20 07:30:52;;;;;;;19.50;6.95;;;5.50;99.90;;;;;;4982306;28;20121;-66
2023/12/20 07:33:18;;;;;;;19.42;6.65;;;5.50;99.90;;;;;;4989704;28;20152;-66
2023/12/20 07:35:45;;;;;;;24.10;7.50;;;5.50;99.90;;;;;;4997897;28;20029;-65
2023/12/20 07:38:12;;;;;;;15.48;5.10;;;5.50;99.90;;;;;;4999656;28;20032;-65
2023/12/20 07:40:37;;;;;;;23.33;7.10;;;5.50;99.90;;;;;;4994959;28;20397;-65
2023/12/20 07:43:03;;;;;;;25.05;6.88;;;5.60;99.90;;;;;;4994152;28;20018;-65
2023/12/20 07:45:29;;;;;;;27.80;8.57;;;5.60;99.90;;;;;;5001534;28;20030;-65
2023/12/20 07:47:54;;;;;;;17.33;6.25;;;5.50;99.90;;;;;;4999381;28;20044;-65
2023/12/20 07:50:22;;;;;;;20.75;6.50;;;5.60;99.90;;;;;;4997468;28;20027;-65
2023/12/20 07:52:48;;;;;;;28.45;8.20;;;5.60;99.90;;;;;;4986235;28;20610;-65
2023/12/20 07:55:13;;;;;;;16.35;5.25;;;5.60;99.90;;;;;;5000801;28;20126;-65
2023/12/20 07:57:41;;;;;;;24.08;7.07;;;5.60;99.90;;;;;;5000196;28;20026;-65
2023/12/20 08:00:07;;;;;;;26.45;6.78;;;5.60;99.90;;;;;;4980328;28;20053;-65
2023/12/20 08:02:33;;;;;;;20.15;7.28;;;5.70;99.90;;;;;;5002029;28;20404;-65
2023/12/20 08:04:58;;;;;;;21.63;8.20;;;5.60;99.90;;;;;;4983145;28;20030;-65
2023/12/20 08:07:24;;;;;;;19.17;4.85;;;5.70;99.90;;;;;;4982176;28;20069;-65
2023/12/20 08:09:52;;;;;;;17.60;5.57;;;5.70;99.90;;;;;;4999497;28;20042;-67
2023/12/20 08:12:17;;;;;;;19.85;6.43;;;5.60;99.90;;;;;;5000850;28;20025;-65
2023/12/20 08:14:43;;;;;;;23.27;6.85;;;5.70;99.90;;;;;;4997473;28;20093;-65
2023/12/20 08:17:08;;;;;;;18.10;6.60;;;5.70;99.90;;;;;;5001004;28;20033;-65
2023/12/20 08:19:34;;;;;;;19.55;5.88;;;5.70;99.90;;;;;;4995413;28;20034;-65
2023/12/20 08:21:59;;;;;;;23.73;5.65;;;5.70;99.90;;;;;;5000504;28;20043;-65
2023/12/20 08:24:27;;;;;;;11.52;4.25;;;5.70;99.90;;;;;;5000356;28;20077;-65
2023/12/20 08:26:55;;;;;;;29.70;7.75;;;5.80;99.90;;;;;;4999734;28;20014;-65
2023/12/20 08:29:21;;;;;;;21.38;6.65;;;5.80;99.90;;;;;;4985593;28;20018;-65
2023/12/20 08:31:46;;;;;;;20.90;7.10;;;5.80;99.90;;;;;;4990849;28;20046;-65
2023/12/20 08:34:14;;;;;;;18.42;7.20;;;5.80;99.90;;;;;;4974854;28;20026;-65
2023/12/20 08:36:39;;;;;;;17.30;7.85;;;5.70;99.90;;;;;;4996924;28;20033;-68
2023/12/20 08:39:07;;;;;;;24.33;7.13;;;5.80;99.90;;;;;;4994941;28;20018;-65
2023/12/20 08:41:35;;;;;;;15.18;5.60;;;5.80;99.90;;;;;;4996867;28;20526;-65
2023/12/20 08:44:00;;;;;;;19.85;7.53;;;5.80;99.90;;;;;;5006146;28;20049;-65
2023/12/20 08:46:26;;;;;;;19.25;7.55;;;5.80;99.90;;;;;;5000859;28;20105;-65
2023/12/20 08:48:51;;;;;;;14.70;5.45;;;5.80;99.90;;;;;;4994255;28;20045;-66
2023/12/20 08:51:17;;;;;;;20.33;5.90;;;5.90;99.90;;;;;;4998470;28;20335;-65
2023/12/20 08:53:45;;;;;;;25.52;7.60;;;5.90;99.90;;;;;;4977385;28;20022;-65
2023/12/20 08:56:10;;;;;;;20.35;6.20;;;5.90;99.90;;;;;;4997131;28;20032;-65
2023/12/20 08:58:36;;;;;;;22.35;6.65;;;5.90;99.90;;;;;;5003134;28;20022;-65
2023/12/20 09:01:01;;;;;;;22.25;6.38;;;5.90;99.90;;;;;;4981057;28;20026;-65
2023/12/20 09:03:27;;;;;;;20.65;5.93;;;5.90;99.90;;;;;;4999556;28;20025;-65
2023/12/20 09:05:55;;;;;;;20.67;6.10;;;5.90;99.90;;;;;;4982535;28;20041;-65
2023/12/20 09:08:23;;;;;;;17.48;5.57;;;5.90;99.90;;;;;;4998838;28;20022;-65
2023/12/20 09:10:49;;;;;;;21.20;6.38;;;6.00;99.90;;;;;;4998636;28;20110;-65
2023/12/20 09:13:14;;;;;;;17.27;6.20;;;6.00;99.90;;;;;;4997502;28;20462;-65
2023/12/20 09:15:40;;;;;;;28.00;8.23;;;6.00;99.90;;;;;;4997603;28;20030;-65
2023/12/20 09:18:06;;;;;;;14.55;6.65;;;6.00;99.90;;;;;;4963369;28;1088552;-65
2023/12/20 09:20:32;;;;;;;23.63;9.05;;;6.00;99.90;;;;;;4997197;28;20109;-65
2023/12/20 09:22:58;;;;;;;15.75;5.50;;;6.00;99.90;;;;;;5001047;28;20022;-65
2023/12/20 09:25:25;;;;;;;23.90;7.25;;;6.00;99.90;;;;;;4994237;28;20030;-65
2023/12/20 09:27:52;;;;;;;18.83;7.15;;;6.00;99.90;;;;;;4988209;28;20021;-65
2023/12/20 09:30:18;;;;;;;29.50;8.68;;;6.00;99.90;;;;;;4981415;28;20026;-65
2023/12/20 09:32:46;;;;;;;14.95;4.93;;;6.00;99.90;;;;;;4982644;28;20037;-64
2023/12/20 09:35:12;;;;;;;18.65;6.30;;;6.00;99.90;;;;;;4984605;28;20096;-64
2023/12/20 09:37:41;;;;;;;15.43;5.00;;;6.00;99.90;;;;;;4996302;28;20038;-64
2023/12/20 09:40:09;;;;;;;24.10;8.88;;;6.10;99.90;;;;;;4994804;28;20461;-64
2023/12/20 09:42:47;;;;;;;19.25;5.43;;;6.10;99.90;;;;;;4999260;28;20022;-64
2023/12/20 09:45:15;;;;;;;24.35;6.57;;;6.10;99.90;;;;;;5005099;28;20485;-65
2023/12/20 09:47:42;;;;;;;15.68;6.22;;;6.10;99.90;;;;;;4979810;28;20032;-64
2023/12/20 09:50:08;;;;;;;19.38;6.53;;;6.10;99.90;;;;;;4994373;28;20048;-66
2023/12/20 09:52:35;;;;;;;20.40;6.20;;;6.10;99.90;;;;;;4980295;28;20035;-64
2023/12/20 09:55:05;;;;;;;27.10;6.85;;;6.10;99.90;;;;;;4995572;28;20041;-64
2023/12/20 09:57:31;;;;;;;20.85;5.45;;;6.10;99.90;;;;;;4983166;28;20397;-64
2023/12/20 10:00:00;;;;;;;15.45;6.32;;;6.10;99.90;;;;;;4995539;28;20130;-64
2023/12/20 10:02:27;;;;;;;24.83;6.20;;;6.20;99.90;;;;;;4991076;28;20033;-64
2023/12/20 10:04:54;;;;;;;20.15;5.68;;;6.10;99.90;;;;;;4977340;28;20026;-64
2023/12/20 10:07:20;;;;;;;13.02;4.90;;;6.20;99.90;;;;;;4996452;28;20177;-64
2023/12/20 10:09:54;;;;;;;17.17;6.20;;;6.20;99.90;;;;;;4976464;28;20018;-64
2023/12/20 10:12:20;;;;;;;18.00;5.80;;;6.20;99.90;;;;;;4999888;28;20038;-64
2023/12/20 10:14:46;;;;;;;16.50;5.13;;;6.20;99.90;;;;;;4983772;28;20084;-64
2023/12/20 10:17:11;;;;;;;15.80;4.50;;;6.20;99.90;;;;;;4982793;28;20064;-64
2023/12/20 10:19:37;;;;;;;18.67;4.82;;;6.30;99.90;;;;;;4978871;28;20042;-64
2023/12/20 10:22:05;;;;;;;15.55;4.97;;;6.30;99.90;;;;;;4987069;28;20113;-65
2023/12/20 10:24:31;;;;;;;22.63;6.80;;;6.30;99.90;;;;;;4995664;28;20414;-64
2023/12/20 10:27:07;;;;;;;17.55;7.20;;;6.30;99.90;;;;;;4985677;28;20108;-64
2023/12/20 10:29:36;;;;;;;19.85;5.28;;;6.30;99.90;;;;;;5001884;28;20025;-65
2023/12/20 10:32:35;;;;;;;17.17;3.63;;;6.30;99.90;;;;;;4981324;28;20061;-65
2023/12/20 10:35:00;;;;;;;18.75;6.55;;;6.30;99.90;;;;;;4958207;28;20854;-65
2023/12/20 10:37:26;;;;;;;16.95;5.22;;;6.30;99.90;;;;;;4978595;28;20022;-65
2023/12/20 10:39:58;;;;;;;26.05;7.22;;;6.30;99.90;;;;;;4991687;28;20080;-67
2023/12/20 10:42:27;;;;;;;14.27;5.28;;;6.30;99.90;;;;;;4997622;28;20534;-65
2023/12/20 10:44:55;;;;;;;13.70;4.70;;;6.30;99.90;;;;;;4995262;28;20022;-65
2023/12/20 10:47:22;;;;;;;20.63;7.13;;;6.20;99.90;;;;;;4988392;28;20066;-67
2023/12/20 10:49:49;;;;;;;21.35;5.70;;;6.10;99.90;;;;;;4996973;28;20049;-65
2023/12/20 10:52:17;;;;;;;18.75;5.72;;;6.10;99.90;;;;;;4998963;28;20022;-65
2023/12/20 10:54:44;;;;;;;23.50;6.72;;;6.10;99.90;;;;;;4987491;28;20038;-67
2023/12/20 10:57:10;;;;;;;24.20;7.13;;;6.10;99.90;;;;;;4995604;28;20018;-66
2023/12/20 10:59:39;;;;;;;18.42;5.53;;;6.10;99.90;;;;;;4973658;28;20033;-66
2023/12/20 11:02:05;;;;;;;27.77;6.72;;;6.10;99.90;;;;;;4977742;28;20022;-65
2023/12/20 11:05:15;;;;;;;24.60;7.45;;;6.10;99.90;;;;;;4989286;28;20447;-65
2023/12/20 11:07:47;;;;;;;19.45;5.38;;;6.20;99.90;;;;;;4997550;28;20039;-66
2023/12/20 11:10:46;;;;;;;27.02;7.60;;;6.20;99.90;;;;;;5002193;28;20030;-66
2023/12/20 11:13:27;;;;;;;17.17;5.10;;;6.20;99.90;;;;;;4988208;28;20120;-65
2023/12/20 11:15:53;;;;;;;22.00;6.22;;;6.20;99.90;;;;;;5002332;28;20034;-67
2023/12/20 11:18:19;;;;;;;22.20;8.13;;;6.30;99.90;;;;;;5002734;28;20030;-67
2023/12/20 11:20:44;;;;;;;15.93;5.85;;;6.20;99.90;;;;;;4998480;28;20544;-66
2023/12/20 11:23:10;;;;;;;28.67;7.50;;;6.20;99.90;;;;;;4997501;28;20061;-66
2023/12/20 11:25:49;;;;;;;15.68;6.30;;;6.20;99.90;;;;;;4990502;28;20462;-65
2023/12/20 11:28:17;;;;;;;17.45;7.07;;;6.20;99.90;;;;;;5006475;28;20030;-66
2023/12/20 11:30:48;;;;;;;19.95;5.30;;;6.20;99.90;;;;;;4994530;28;20068;-66
2023/12/20 11:33:14;;;;;;;;;;;6.30;99.90;;;;;;5001543;28;20030;-66
2023/12/20 11:35:41;;;;;;;19.08;6.47;;;6.30;99.90;;;;;;5000188;28;20504;-65
2023/12/20 11:38:10;;;;;;;19.30;5.53;;;6.30;99.90;;;;;;4998797;28;20046;-66
2023/12/20 11:40:36;;;;;;;22.33;6.38;;;6.30;99.90;;;;;;5000621;28;20022;-66
2023/12/20 11:43:03;;;;;;;21.20;7.18;;;6.30;99.90;;;;;;5001660;28;20140;-65
2023/12/20 11:45:29;;;;;;;20.67;7.07;;;6.40;99.90;;;;;;4984726;28;20085;-66
2023/12/20 11:47:57;;;;;;;17.30;6.10;;;6.50;99.90;;;;;;4996626;28;20496;-65
2023/12/20 11:50:23;;;;;;;15.27;5.70;;;6.50;99.90;;;;;;4994467;28;20026;-66
2023/12/20 11:52:51;;;;;;;18.02;6.63;;;6.50;99.90;;;;;;5002073;28;20423;-65
2023/12/20 11:55:17;;;;;;;15.50;6.85;;;6.60;99.90;;;;;;4984245;28;20046;-65
2023/12/20 11:57:43;;;;;;;20.83;6.03;;;6.80;99.90;;;;;;5002701;28;20197;-65
2023/12/20 12:00:10;;;;;;;21.98;7.07;;;6.80;99.90;;;;;;5002277;28;20060;-65
2023/12/20 12:02:35;;;;;;;17.67;5.57;;;6.70;99.90;;;;;;4996362;28;20269;-66
2023/12/20 12:05:02;;;;;;;16.90;5.93;;;6.70;99.90;;;;;;5002275;28;20092;-66
2023/12/20 12:07:27;;;;;;;22.17;6.18;;;6.60;99.90;;;;;;5002419;28;20027;-65
2023/12/20 12:09:53;;;;;;;26.00;7.13;;;6.50;99.90;;;;;;5000440;28;20035;-66
2023/12/20 12:12:21;;;;;;;20.67;8.30;;;6.40;99.90;;;;;;4996319;28;20037;-67
2023/12/20 12:14:51;;;;;;;18.10;6.65;;;6.40;99.90;;;;;;4991823;28;20040;-65
2023/12/20 12:17:16;;;;;;;22.00;7.80;;;6.40;99.90;;;;;;4987417;28;20042;-65
2023/12/20 12:19:43;;;;;;;23.85;7.07;;;6.50;99.90;;;;;;4996967;28;20057;-65
2023/12/20 12:22:16;;;;;;;18.77;7.22;;;6.40;99.90;;;;;;4995104;28;20492;-65
2023/12/20 12:24:47;;;;;;;20.92;8.30;;;6.40;99.90;;;;;;5004514;28;20334;-67
2023/12/20 12:27:15;;;;;;;;;;;6.30;99.90;;;;;;4988611;28;20022;-67
2023/12/20 12:29:59;;;;;;;20.48;7.25;;;6.30;99.90;;;;;;4988147;28;20115;-65
2023/12/20 12:32:25;;;;;;;19.55;7.93;;;6.30;99.90;;;;;;5001550;28;20038;-65
2023/12/20 12:34:51;;;;;;;19.17;6.65;;;6.30;99.90;;;;;;4975921;28;20105;-66
2023/12/20 12:37:16;;;;;;;25.88;9.05;;;6.20;99.90;;;;;;4995963;28;20123;-67
2023/12/20 12:39:42;;;;;;;23.80;7.25;;;6.20;99.90;;;;;;5002396;28;20461;-67
2023/12/20 12:42:08;;;;;;;25.00;8.25;;;6.10;99.90;;;;;;4998916;28;20026;-67
2023/12/20 12:44:33;;;;;;;22.30;8.45;;;6.10;99.90;;;;;;4997603;28;20056;-65
2023/12/20 12:46:59;;;;;;;20.88;7.15;;;6.10;99.90;;;;;;4998280;28;20478;-65